Nearby METAR Reports

 

KRNT - Renton, Washington, USA
Distance from station: WNW 10mi, 17km
Updated: Wed, 18-Jul-2018 6:53am PDT
Overcast
Overcast
 Wind from S
Wind: S 5 mph , 7 km/h
Temperature: 63°F , 17°C
Dew Point: 55°F , 13°C
Humidity: 77%
Barometer: 30.16 inHg , 1021.3 hPa
Clouds: Overcast
Visibility: 10 miles , 16 km
Cloud details: Overcast 2000 ft
2018/07/18 13:53 KRNT 181353Z AUTO 19004KT 10SM OVC020 17/13 A3016 RMK AO2 SLP216 T01720128
KSEA - Seattle/Metro, Washington, USA
Distance from station: W 14mi, 23km
Updated: Wed, 18-Jul-2018 6:53am PDT
Overcast
Overcast
 Wind from WSW
Wind: WSW 6 mph , 9 km/h
Temperature: 61°F , 16°C
Dew Point: 55°F , 13°C
Humidity: 83%
Barometer: 30.17 inHg , 1021.7 hPa
Clouds: Overcast
Visibility: 9 miles , 14 km
Cloud details: Partly cloudy 800 ft
Overcast 1200 ft
2018/07/18 13:53 KSEA 181353Z 24005KT 9SM SCT008 OVC012 16/13 A3017 RMK AO2 SLP218 T01560133
 
KBFI - Seattle/Boeing, Washington, USA
Distance from station: WNW 16mi, 26km
Updated: Wed, 18-Jul-2018 6:53am PDT
Overcast
Overcast
 Wind from varies
Wind: varies 6 mph , 9 km/h
Temperature: 61°F , 16°C
Dew Point: 55°F , 13°C
Humidity: 83%
Barometer: 30.16 inHg , 1021.3 hPa
Clouds: Overcast
Visibility: 10 miles , 16 km
Cloud details: Partly cloudy 1200 ft
Overcast 2200 ft
2018/07/18 13:53 KBFI 181353Z VRB05KT 10SM SCT012 OVC022 16/13 A3016 RMK AO2 SLP211 T01610128
KPLU - Puyallup/Thun, Washington, USA
Distance from station: SSW 27mi, 43km
Updated: Wed, 18-Jul-2018 6:55am PDT
Overcast
Overcast
 Wind from calm
Wind: Calm
Temperature: 61°F , 16°C
Dew Point: 57°F , 14°C
Humidity: 88%
Barometer: 30.17 inHg , 1021.7 hPa
Clouds: Overcast
Visibility: 10 miles , 16 km
Cloud details: Overcast 1500 ft
2018/07/18 13:55 KPLU 181355Z AUTO 00000KT 10SM OVC015 16/14 A3017 RMK AO2
 
KTIW - Tacoma, Washington, USA
Distance from station: WSW 29mi, 47km
Updated: Wed, 18-Jul-2018 7:02am PDT
Overcast
Overcast
 Wind from W
Wind: W 5 mph , 7 km/h
Temperature: 57°F , 14°C
Dew Point: 55°F , 13°C
Humidity: 94%
Barometer: 30.16 inHg , 1021.3 hPa
Clouds: Overcast
Visibility: 10 miles , 16 km
Cloud details: Overcast 1400 ft
2018/07/18 14:02 KTIW 181402Z AUTO 26004KT 10SM OVC014 14/13 A3016 RMK AO2 T01440128
KTCM - Tacoma/Mc Chord, Washington, USA
Distance from station: SW 31mi, 50km
Updated: Wed, 18-Jul-2018 6:58am PDT
Overcast
Overcast
 Wind from SW
Wind: SW 5 mph , 7 km/h
Temperature: 61°F , 16°C
Dew Point: 59°F , 15°C
Humidity: 94%
Barometer: 30.16 inHg , 1021.3 hPa
Clouds: Overcast
Visibility: 10 miles , 16 km
Cloud details: Overcast 1800 ft
2018/07/18 13:58 KTCM 181358Z AUTO 23004KT 10SM OVC018 16/15 A3016 RMK AO2 SLP216
 
KPAE - Everett, Washington, USA
Distance from station: NNW 35mi, 56km
Updated: Wed, 18-Jul-2018 6:53am PDT
Overcast
Overcast
 Wind from S
Wind: S 7 mph , 11 km/h
Temperature: 61°F , 16°C
Dew Point: 55°F , 13°C
Humidity: 83%
Barometer: 30.17 inHg , 1021.7 hPa
Clouds: Overcast
Visibility: 10 miles , 16 km
Cloud details: Overcast 1500 ft
2018/07/18 13:53 KPAE 181353Z AUTO 19006KT 10SM OVC015 16/13 A3017 RMK AO2 SLP213 T01560128
KPWT - Bremerton Ntnl, Washington, USA
Distance from station: W 35mi, 56km
Updated: Wed, 18-Jul-2018 7:07am PDT
Overcast
Overcast
 Wind from SW
Wind: SW 6 mph , 9 km/h
Temperature: 57°F , 14°C
Dew Point: 54°F , 12°C
Humidity: 88%
Barometer: 30.17 inHg , 1021.7 hPa
Clouds: Overcast
Visibility: 10 miles , 16 km
Cloud details: Overcast 1100 ft
2018/07/18 14:07 KPWT 181407Z AUTO 22005KT 10SM OVC011 14/12 A3017 RMK AO2
 
KGRF - Fort Lewis/Gray, Washington, USA
Distance from station: SW 37mi, 59km
Updated: Wed, 18-Jul-2018 6:58am PDT
Overcast
Overcast
 Wind from SSW
Wind: SSW 8 mph , 13 km/h
Temperature: 59°F , 15°C
Dew Point: 59°F , 15°C
Humidity: 100%
Barometer: 30.16 inHg , 1021.3 hPa
Clouds: Overcast
Visibility: 9 miles , 14 km
Cloud details: Mostly cloudy 1300 ft
Overcast 1800 ft
2018/07/18 13:58 KGRF 181358Z 20007KT 9SM BKN013 OVC018 15/15 A3016 RMK AO2A BKN V OVC SLP216 T01500148 $